sensor_id;sensor_type;location;lat;lon;timestamp;temperature;humidity
74513;DHT22;62992;52.052;8.550;2023-05-10T00:01:16;14.60;99.90
74513;DHT22;62992;52.052;8.550;2023-05-10T00:04:00;14.60;99.90
74513;DHT22;62992;52.052;8.550;2023-05-10T00:06:44;14.60;99.90
74513;DHT22;62992;52.052;8.550;2023-05-10T00:09:28;14.60;99.90
74513;DHT22;62992;52.052;8.550;2023-05-10T00:12:12;14.60;99.90
74513;DHT22;62992;52.052;8.550;2023-05-10T00:14:57;14.60;99.90
74513;DHT22;62992;52.052;8.550;2023-05-10T00:17:41;14.50;99.90
74513;DHT22;62992;52.052;8.550;2023-05-10T00:20:25;14.60;99.90
74513;DHT22;62992;52.052;8.550;2023-05-10T00:23:10;14.50;99.90
74513;DHT22;62992;52.052;8.550;2023-05-10T00:25:54;14.50;99.90
74513;DHT22;62992;52.052;8.550;2023-05-10T00:28:38;14.60;99.90
74513;DHT22;62992;52.052;8.550;2023-05-10T00:31:22;14.50;99.90
74513;DHT22;62992;52.052;8.550;2023-05-10T00:34:06;14.50;99.90
74513;DHT22;62992;52.052;8.550;2023-05-10T00:36:50;14.50;99.90
74513;DHT22;62992;52.052;8.550;2023-05-10T00:39:35;14.50;99.90
74513;DHT22;62992;52.052;8.550;2023-05-10T00:42:19;14.50;99.90
74513;DHT22;62992;52.052;8.550;2023-05-10T00:45:03;14.40;99.90
74513;DHT22;62992;52.052;8.550;2023-05-10T00:47:47;14.50;99.90
74513;DHT22;62992;52.052;8.550;2023-05-10T00:50:32;14.50;99.90
74513;DHT22;62992;52.052;8.550;2023-05-10T00:53:16;14.50;99.90
74513;DHT22;62992;52.052;8.550;2023-05-10T00:56:01;14.40;99.90
74513;DHT22;62992;52.052;8.550;2023-05-10T00:58:45;14.40;99.90
74513;DHT22;62992;52.052;8.550;2023-05-10T01:01:29;14.40;99.90
74513;DHT22;62992;52.052;8.550;2023-05-10T01:04:13;14.40;99.90
74513;DHT22;62992;52.052;8.550;2023-05-10T01:06:58;14.40;99.90
74513;DHT22;62992;52.052;8.550;2023-05-10T01:09:42;14.40;99.90
74513;DHT22;62992;52.052;8.550;2023-05-10T01:12:26;14.40;99.90
74513;DHT22;62992;52.052;8.550;2023-05-10T01:15:10;14.40;99.90
74513;DHT22;62992;52.052;8.550;2023-05-10T01:17:55;14.40;99.90
74513;DHT22;62992;52.052;8.550;2023-05-10T01:20:40;14.50;99.90
74513;DHT22;62992;52.052;8.550;2023-05-10T01:29:11;14.50;99.90
74513;DHT22;62992;52.052;8.550;2023-05-10T01:37:42;14.40;99.90
74513;DHT22;62992;52.052;8.550;2023-05-10T01:40:30;14.40;99.90
74513;DHT22;62992;52.052;8.550;2023-05-10T01:43:22;14.40;99.90
74513;DHT22;62992;52.052;8.550;2023-05-10T01:46:10;14.40;99.90
74513;DHT22;62992;52.052;8.550;2023-05-10T01:48:57;14.40;99.90
74513;DHT22;62992;52.052;8.550;2023-05-10T01:51:44;14.40;99.90
74513;DHT22;62992;52.052;8.550;2023-05-10T01:54:30;14.40;99.90
74513;DHT22;62992;52.052;8.550;2023-05-10T01:57:14;14.40;99.90
74513;DHT22;62992;52.052;8.550;2023-05-10T02:00:01;14.40;99.90
74513;DHT22;62992;52.052;8.550;2023-05-10T02:02:46;14.30;99.90
74513;DHT22;62992;52.052;8.550;2023-05-10T02:05:31;14.30;99.90
74513;DHT22;62992;52.052;8.550;2023-05-10T02:08:16;14.30;99.90
74513;DHT22;62992;52.052;8.550;2023-05-10T02:11:01;14.30;99.90
74513;DHT22;62992;52.052;8.550;2023-05-10T02:13:46;14.30;99.90
74513;DHT22;62992;52.052;8.550;2023-05-10T02:16:31;14.30;99.90
74513;DHT22;62992;52.052;8.550;2023-05-10T02:19:15;14.30;99.90
74513;DHT22;62992;52.052;8.550;2023-05-10T02:22:00;14.20;99.90
74513;DHT22;62992;52.052;8.550;2023-05-10T02:24:45;14.20;99.90
74513;DHT22;62992;52.052;8.550;2023-05-10T02:27:30;14.20;99.90
74513;DHT22;62992;52.052;8.550;2023-05-10T02:30:14;14.10;99.90
74513;DHT22;62992;52.052;8.550;2023-05-10T02:32:59;14.10;99.90
74513;DHT22;62992;52.052;8.550;2023-05-10T02:35:44;14.10;99.90
74513;DHT22;62992;52.052;8.550;2023-05-10T02:38:29;14.00;99.90
74513;DHT22;62992;52.052;8.550;2023-05-10T02:41:15;14.00;99.90
74513;DHT22;62992;52.052;8.550;2023-05-10T02:43:59;13.90;99.90
74513;DHT22;62992;52.052;8.550;2023-05-10T02:46:45;13.90;99.90
74513;DHT22;62992;52.052;8.550;2023-05-10T02:49:29;13.90;99.90
74513;DHT22;62992;52.052;8.550;2023-05-10T02:52:15;14.00;99.90
74513;DHT22;62992;52.052;8.550;2023-05-10T02:55:01;13.90;99.90
74513;DHT22;62992;52.052;8.550;2023-05-10T02:57:48;13.90;99.90
74513;DHT22;62992;52.052;8.550;2023-05-10T03:00:34;13.90;99.90
74513;DHT22;62992;52.052;8.550;2023-05-10T03:03:19;13.80;99.90
74513;DHT22;62992;52.052;8.550;2023-05-10T03:06:04;13.80;99.90
74513;DHT22;62992;52.052;8.550;2023-05-10T03:08:48;13.90;99.90
74513;DHT22;62992;52.052;8.550;2023-05-10T03:17:55;13.80;99.90
74513;DHT22;62992;52.052;8.550;2023-05-10T03:20:50;13.90;99.90
74513;DHT22;62992;52.052;8.550;2023-05-10T03:23:46;13.80;99.90
74513;DHT22;62992;52.052;8.550;2023-05-10T03:26:31;13.80;99.90
74513;DHT22;62992;52.052;8.550;2023-05-10T03:29:16;13.80;99.90
74513;DHT22;62992;52.052;8.550;2023-05-10T03:32:01;13.80;99.90
74513;DHT22;62992;52.052;8.550;2023-05-10T03:34:45;13.80;99.90
74513;DHT22;62992;52.052;8.550;2023-05-10T03:37:29;13.80;99.90
74513;DHT22;62992;52.052;8.550;2023-05-10T03:40:13;13.80;99.90
74513;DHT22;62992;52.052;8.550;2023-05-10T03:42:58;13.80;99.90
74513;DHT22;62992;52.052;8.550;2023-05-10T03:45:42;13.80;99.90
74513;DHT22;62992;52.052;8.550;2023-05-10T03:48:26;13.70;99.90
74513;DHT22;62992;52.052;8.550;2023-05-10T03:51:11;13.70;99.90
74513;DHT22;62992;52.052;8.550;2023-05-10T03:53:55;13.80;99.90
74513;DHT22;62992;52.052;8.550;2023-05-10T03:56:39;13.80;99.90
74513;DHT22;62992;52.052;8.550;2023-05-10T03:59:23;13.70;99.90
74513;DHT22;62992;52.052;8.550;2023-05-10T04:02:07;13.70;99.90
74513;DHT22;62992;52.052;8.550;2023-05-10T04:04:52;13.60;99.90
74513;DHT22;62992;52.052;8.550;2023-05-10T04:07:36;13.60;99.90
74513;DHT22;62992;52.052;8.550;2023-05-10T04:10:20;13.70;99.90
74513;DHT22;62992;52.052;8.550;2023-05-10T04:13:04;13.70;99.90
74513;DHT22;62992;52.052;8.550;2023-05-10T04:15:49;13.70;99.90
74513;DHT22;62992;52.052;8.550;2023-05-10T04:18:33;13.70;99.90
74513;DHT22;62992;52.052;8.550;2023-05-10T04:21:17;13.60;99.90
74513;DHT22;62992;52.052;8.550;2023-05-10T04:24:01;13.50;99.90
74513;DHT22;62992;52.052;8.550;2023-05-10T04:26:45;13.40;99.90
74513;DHT22;62992;52.052;8.550;2023-05-10T04:29:30;13.40;99.90
74513;DHT22;62992;52.052;8.550;2023-05-10T04:32:14;13.30;99.90
74513;DHT22;62992;52.052;8.550;2023-05-10T04:35:00;13.30;99.90
74513;DHT22;62992;52.052;8.550;2023-05-10T04:37:44;13.30;99.90
74513;DHT22;62992;52.052;8.550;2023-05-10T04:40:28;13.30;99.90
74513;DHT22;62992;52.052;8.550;2023-05-10T04:43:12;13.30;99.90
74513;DHT22;62992;52.052;8.550;2023-05-10T04:45:56;13.30;99.90
74513;DHT22;62992;52.052;8.550;2023-05-10T04:48:40;13.20;99.90
74513;DHT22;62992;52.052;8.550;2023-05-10T04:51:25;13.30;99.90
74513;DHT22;62992;52.052;8.550;2023-05-10T04:54:09;13.20;99.90
74513;DHT22;62992;52.052;8.550;2023-05-10T04:56:54;13.20;99.90
74513;DHT22;62992;52.052;8.550;2023-05-10T04:59:38;13.20;99.90
74513;DHT22;62992;52.052;8.550;2023-05-10T05:02:22;13.20;99.90
74513;DHT22;62992;52.052;8.550;2023-05-10T05:05:07;13.20;99.90
74513;DHT22;62992;52.052;8.550;2023-05-10T05:07:51;13.20;99.90
74513;DHT22;62992;52.052;8.550;2023-05-10T05:10:36;13.20;99.90
74513;DHT22;62992;52.052;8.550;2023-05-10T05:13:20;13.20;99.90
74513;DHT22;62992;52.052;8.550;2023-05-10T05:16:04;13.20;99.90
74513;DHT22;62992;52.052;8.550;2023-05-10T05:18:48;13.20;99.90
74513;DHT22;62992;52.052;8.550;2023-05-10T05:21:33;13.30;99.90
74513;DHT22;62992;52.052;8.550;2023-05-10T05:24:17;13.20;99.90
74513;DHT22;62992;52.052;8.550;2023-05-10T05:27:01;13.20;99.90
74513;DHT22;62992;52.052;8.550;2023-05-10T05:29:46;13.30;99.90
74513;DHT22;62992;52.052;8.550;2023-05-10T05:32:30;13.30;99.90
74513;DHT22;62992;52.052;8.550;2023-05-10T05:35:14;13.30;99.90
74513;DHT22;62992;52.052;8.550;2023-05-10T05:37:58;13.30;99.90
74513;DHT22;62992;52.052;8.550;2023-05-10T05:40:42;13.30;99.90
74513;DHT22;62992;52.052;8.550;2023-05-10T05:43:26;13.30;99.90
74513;DHT22;62992;52.052;8.550;2023-05-10T05:46:11;13.20;99.90
74513;DHT22;62992;52.052;8.550;2023-05-10T05:48:55;13.20;99.90
74513;DHT22;62992;52.052;8.550;2023-05-10T05:51:39;13.20;99.90
74513;DHT22;62992;52.052;8.550;2023-05-10T05:54:23;13.10;99.90
74513;DHT22;62992;52.052;8.550;2023-05-10T05:57:08;13.20;99.90
74513;DHT22;62992;52.052;8.550;2023-05-10T05:59:52;13.20;99.90
74513;DHT22;62992;52.052;8.550;2023-05-10T06:02:37;13.20;99.90
74513;DHT22;62992;52.052;8.550;2023-05-10T06:05:21;13.20;99.90
74513;DHT22;62992;52.052;8.550;2023-05-10T06:08:05;13.20;99.90
74513;DHT22;62992;52.052;8.550;2023-05-10T06:10:49;13.20;99.90
74513;DHT22;62992;52.052;8.550;2023-05-10T06:13:34;13.30;99.90
74513;DHT22;62992;52.052;8.550;2023-05-10T06:16:18;13.20;99.90
74513;DHT22;62992;52.052;8.550;2023-05-10T06:19:02;13.10;99.90
74513;DHT22;62992;52.052;8.550;2023-05-10T06:21:47;13.20;99.90
74513;DHT22;62992;52.052;8.550;2023-05-10T06:24:31;13.20;99.90
74513;DHT22;62992;52.052;8.550;2023-05-10T06:27:15;13.20;99.90
74513;DHT22;62992;52.052;8.550;2023-05-10T06:30:00;13.20;99.90
74513;DHT22;62992;52.052;8.550;2023-05-10T06:32:44;13.20;99.90
74513;DHT22;62992;52.052;8.550;2023-05-10T06:35:28;13.20;99.90
74513;DHT22;62992;52.052;8.550;2023-05-10T06:38:13;13.20;99.90
74513;DHT22;62992;52.052;8.550;2023-05-10T06:40:57;13.10;99.90
74513;DHT22;62992;52.052;8.550;2023-05-10T06:43:41;13.20;99.90
74513;DHT22;62992;52.052;8.550;2023-05-10T06:46:27;13.10;99.90
74513;DHT22;62992;52.052;8.550;2023-05-10T06:49:11;13.20;99.90
74513;DHT22;62992;52.052;8.550;2023-05-10T06:51:55;13.40;99.90
74513;DHT22;62992;52.052;8.550;2023-05-10T06:54:40;13.40;99.90
74513;DHT22;62992;52.052;8.550;2023-05-10T06:57:24;13.30;99.90
74513;DHT22;62992;52.052;8.550;2023-05-10T07:00:08;13.30;99.90
74513;DHT22;62992;52.052;8.550;2023-05-10T07:02:53;13.30;99.90
74513;DHT22;62992;52.052;8.550;2023-05-10T07:05:37;13.40;99.90
74513;DHT22;62992;52.052;8.550;2023-05-10T07:08:21;13.50;99.90
74513;DHT22;62992;52.052;8.550;2023-05-10T07:11:06;13.40;99.90
74513;DHT22;62992;52.052;8.550;2023-05-10T07:13:54;13.40;99.90
74513;DHT22;62992;52.052;8.550;2023-05-10T07:16:38;13.50;99.90
74513;DHT22;62992;52.052;8.550;2023-05-10T07:19:22;13.40;99.90
74513;DHT22;62992;52.052;8.550;2023-05-10T07:22:06;13.40;99.90
74513;DHT22;62992;52.052;8.550;2023-05-10T07:24:50;13.40;99.90
74513;DHT22;62992;52.052;8.550;2023-05-10T07:27:34;13.40;99.90
74513;DHT22;62992;52.052;8.550;2023-05-10T07:30:19;13.40;99.90
74513;DHT22;62992;52.052;8.550;2023-05-10T07:33:03;13.50;99.90
74513;DHT22;62992;52.052;8.550;2023-05-10T07:35:47;13.60;99.90
74513;DHT22;62992;52.052;8.550;2023-05-10T07:38:31;13.60;99.90
74513;DHT22;62992;52.052;8.550;2023-05-10T07:41:15;13.60;99.90
74513;DHT22;62992;52.052;8.550;2023-05-10T07:43:59;13.60;99.90
74513;DHT22;62992;52.052;8.550;2023-05-10T07:46:44;13.50;99.90
74513;DHT22;62992;52.052;8.550;2023-05-10T07:49:28;13.50;99.90
74513;DHT22;62992;52.052;8.550;2023-05-10T07:52:12;13.50;99.90
74513;DHT22;62992;52.052;8.550;2023-05-10T07:54:57;13.60;99.90
74513;DHT22;62992;52.052;8.550;2023-05-10T07:57:42;13.70;99.90
74513;DHT22;62992;52.052;8.550;2023-05-10T08:00:25;13.90;99.90
74513;DHT22;62992;52.052;8.550;2023-05-10T08:03:10;14.00;99.90
74513;DHT22;62992;52.052;8.550;2023-05-10T08:05:54;13.90;99.90
74513;DHT22;62992;52.052;8.550;2023-05-10T08:08:38;13.90;99.90
74513;DHT22;62992;52.052;8.550;2023-05-10T08:11:22;13.90;99.90
74513;DHT22;62992;52.052;8.550;2023-05-10T08:14:06;14.10;99.90
74513;DHT22;62992;52.052;8.550;2023-05-10T08:16:51;14.20;99.90
74513;DHT22;62992;52.052;8.550;2023-05-10T08:19:35;14.20;99.90
74513;DHT22;62992;52.052;8.550;2023-05-10T08:22:19;14.10;99.90
74513;DHT22;62992;52.052;8.550;2023-05-10T08:25:03;14.30;99.90
74513;DHT22;62992;52.052;8.550;2023-05-10T08:27:47;14.50;99.90
74513;DHT22;62992;52.052;8.550;2023-05-10T08:30:32;14.50;99.90
74513;DHT22;62992;52.052;8.550;2023-05-10T08:33:17;14.50;99.90
74513;DHT22;62992;52.052;8.550;2023-05-10T08:36:01;14.40;99.90
74513;DHT22;62992;52.052;8.550;2023-05-10T08:38:45;14.50;99.90
74513;DHT22;62992;52.052;8.550;2023-05-10T08:41:30;14.90;99.90
74513;DHT22;62992;52.052;8.550;2023-05-10T08:44:17;15.70;99.90
74513;DHT22;62992;52.052;8.550;2023-05-10T08:47:02;16.10;99.90
74513;DHT22;62992;52.052;8.550;2023-05-10T08:49:48;16.10;99.90
74513;DHT22;62992;52.052;8.550;2023-05-10T08:52:35;15.80;99.90
74513;DHT22;62992;52.052;8.550;2023-05-10T08:55:22;15.50;99.90
74513;DHT22;62992;52.052;8.550;2023-05-10T08:58:08;15.30;99.90
74513;DHT22;62992;52.052;8.550;2023-05-10T09:00:52;15.30;99.90
74513;DHT22;62992;52.052;8.550;2023-05-10T09:03:38;15.30;99.90
74513;DHT22;62992;52.052;8.550;2023-05-10T09:06:22;15.20;99.90
74513;DHT22;62992;52.052;8.550;2023-05-10T09:09:07;15.00;99.90
74513;DHT22;62992;52.052;8.550;2023-05-10T09:11:51;14.90;99.90
74513;DHT22;62992;52.052;8.550;2023-05-10T09:14:36;14.80;99.90
74513;DHT22;62992;52.052;8.550;2023-05-10T09:17:22;14.70;99.90
74513;DHT22;62992;52.052;8.550;2023-05-10T09:20:07;14.50;99.90
74513;DHT22;62992;52.052;8.550;2023-05-10T09:22:51;14.50;99.90
74513;DHT22;62992;52.052;8.550;2023-05-10T09:25:35;14.60;99.90
74513;DHT22;62992;52.052;8.550;2023-05-10T09:28:21;14.70;99.90
74513;DHT22;62992;52.052;8.550;2023-05-10T09:31:05;14.70;99.90
74513;DHT22;62992;52.052;8.550;2023-05-10T09:33:49;14.70;99.90
74513;DHT22;62992;52.052;8.550;2023-05-10T09:36:34;14.80;99.90
74513;DHT22;62992;52.052;8.550;2023-05-10T09:39:18;14.90;99.90
74513;DHT22;62992;52.052;8.550;2023-05-10T09:42:03;15.10;99.90
74513;DHT22;62992;52.052;8.550;2023-05-10T09:44:47;15.20;99.90
74513;DHT22;62992;52.052;8.550;2023-05-10T09:47:36;15.40;99.90
74513;DHT22;62992;52.052;8.550;2023-05-10T09:50:20;15.50;99.90
74513;DHT22;62992;52.052;8.550;2023-05-10T09:53:05;16.00;99.90
74513;DHT22;62992;52.052;8.550;2023-05-10T09:55:50;16.60;99.90
74513;DHT22;62992;52.052;8.550;2023-05-10T09:58:36;17.00;99.90
74513;DHT22;62992;52.052;8.550;2023-05-10T10:01:20;17.30;99.90
74513;DHT22;62992;52.052;8.550;2023-05-10T10:04:05;17.20;99.90
74513;DHT22;62992;52.052;8.550;2023-05-10T10:07:03;17.50;99.90
74513;DHT22;62992;52.052;8.550;2023-05-10T10:09:47;17.70;99.90
74513;DHT22;62992;52.052;8.550;2023-05-10T10:12:31;17.90;99.90
74513;DHT22;62992;52.052;8.550;2023-05-10T10:15:15;18.10;99.90
74513;DHT22;62992;52.052;8.550;2023-05-10T10:18:00;18.30;99.90
74513;DHT22;62992;52.052;8.550;2023-05-10T10:20:44;18.00;99.90
74513;DHT22;62992;52.052;8.550;2023-05-10T10:23:29;17.70;99.90
74513;DHT22;62992;52.052;8.550;2023-05-10T10:26:13;17.30;99.90
74513;DHT22;62992;52.052;8.550;2023-05-10T10:34:45;16.40;99.90
74513;DHT22;62992;52.052;8.550;2023-05-10T10:37:43;17.20;99.90
74513;DHT22;62992;52.052;8.550;2023-05-10T10:40:31;18.80;99.90
74513;DHT22;62992;52.052;8.550;2023-05-10T10:43:22;19.70;99.90
74513;DHT22;62992;52.052;8.550;2023-05-10T10:46:14;19.30;99.90
74513;DHT22;62992;52.052;8.550;2023-05-10T10:49:09;19.80;99.90
74513;DHT22;62992;52.052;8.550;2023-05-10T10:54:58;20.20;99.90
74513;DHT22;62992;52.052;8.550;2023-05-10T11:00:36;19.40;99.90
74513;DHT22;62992;52.052;8.550;2023-05-10T11:03:21;18.60;99.90
74513;DHT22;62992;52.052;8.550;2023-05-10T11:06:07;19.40;99.90
74513;DHT22;62992;52.052;8.550;2023-05-10T11:08:52;19.00;99.90
74513;DHT22;62992;52.052;8.550;2023-05-10T11:11:37;18.50;99.90
74513;DHT22;62992;52.052;8.550;2023-05-10T11:14:31;18.30;99.90
74513;DHT22;62992;52.052;8.550;2023-05-10T11:17:23;18.20;99.90
74513;DHT22;62992;52.052;8.550;2023-05-10T11:20:13;17.90;99.90
74513;DHT22;62992;52.052;8.550;2023-05-10T11:22:57;17.90;99.90
74513;DHT22;62992;52.052;8.550;2023-05-10T11:25:42;18.20;99.90
74513;DHT22;62992;52.052;8.550;2023-05-10T11:28:27;19.10;99.90
74513;DHT22;62992;52.052;8.550;2023-05-10T11:31:18;20.00;99.90
74513;DHT22;62992;52.052;8.550;2023-05-10T11:34:03;20.40;99.90
74513;DHT22;62992;52.052;8.550;2023-05-10T11:36:50;20.70;99.90
74513;DHT22;62992;52.052;8.550;2023-05-10T11:39:34;20.80;99.90
74513;DHT22;62992;52.052;8.550;2023-05-10T11:42:18;20.60;99.90
74513;DHT22;62992;52.052;8.550;2023-05-10T11:45:03;20.80;99.90
74513;DHT22;62992;52.052;8.550;2023-05-10T11:47:48;20.40;99.90
74513;DHT22;62992;52.052;8.550;2023-05-10T11:50:32;20.90;99.90
74513;DHT22;62992;52.052;8.550;2023-05-10T11:53:17;20.70;99.90
74513;DHT22;62992;52.052;8.550;2023-05-10T11:56:06;19.90;99.90
74513;DHT22;62992;52.052;8.550;2023-05-10T11:58:52;19.40;99.90
74513;DHT22;62992;52.052;8.550;2023-05-10T12:01:37;18.90;99.90
74513;DHT22;62992;52.052;8.550;2023-05-10T12:04:21;18.60;99.90
74513;DHT22;62992;52.052;8.550;2023-05-10T12:07:05;18.30;99.90
74513;DHT22;62992;52.052;8.550;2023-05-10T12:12:49;18.00;99.90
74513;DHT22;62992;52.052;8.550;2023-05-10T12:15:35;17.80;99.90
74513;DHT22;62992;52.052;8.550;2023-05-10T12:18:22;17.60;99.90
74513;DHT22;62992;52.052;8.550;2023-05-10T12:21:09;17.60;99.90
74513;DHT22;62992;52.052;8.550;2023-05-10T12:23:59;17.50;99.90
74513;DHT22;62992;52.052;8.550;2023-05-10T12:26:47;17.50;99.90
74513;DHT22;62992;52.052;8.550;2023-05-10T12:29:32;17.50;99.90
74513;DHT22;62992;52.052;8.550;2023-05-10T12:32:16;17.50;99.90
74513;DHT22;62992;52.052;8.550;2023-05-10T12:35:00;17.60;99.90
74513;DHT22;62992;52.052;8.550;2023-05-10T12:37:44;17.60;99.90
74513;DHT22;62992;52.052;8.550;2023-05-10T12:40:29;17.60;99.90
74513;DHT22;62992;52.052;8.550;2023-05-10T12:43:13;17.80;99.90
74513;DHT22;62992;52.052;8.550;2023-05-10T12:45:57;17.80;99.90
74513;DHT22;62992;52.052;8.550;2023-05-10T12:48:42;17.80;99.90
74513;DHT22;62992;52.052;8.550;2023-05-10T12:51:26;17.70;99.90
74513;DHT22;62992;52.052;8.550;2023-05-10T12:54:10;17.60;99.90
74513;DHT22;62992;52.052;8.550;2023-05-10T12:56:54;17.40;99.90
74513;DHT22;62992;52.052;8.550;2023-05-10T12:59:38;17.40;99.90
74513;DHT22;62992;52.052;8.550;2023-05-10T13:02:22;17.50;99.90
74513;DHT22;62992;52.052;8.550;2023-05-10T13:05:07;17.70;99.90
74513;DHT22;62992;52.052;8.550;2023-05-10T13:07:51;18.00;99.90
74513;DHT22;62992;52.052;8.550;2023-05-10T13:10:35;18.10;99.90
74513;DHT22;62992;52.052;8.550;2023-05-10T13:13:20;18.30;99.90
74513;DHT22;62992;52.052;8.550;2023-05-10T13:16:04;18.50;99.90
74513;DHT22;62992;52.052;8.550;2023-05-10T13:18:48;18.90;99.90
74513;DHT22;62992;52.052;8.550;2023-05-10T13:21:32;19.00;99.90
74513;DHT22;62992;52.052;8.550;2023-05-10T13:24:16;18.70;99.90
74513;DHT22;62992;52.052;8.550;2023-05-10T13:27:01;18.50;99.90
74513;DHT22;62992;52.052;8.550;2023-05-10T13:29:45;18.40;99.90
74513;DHT22;62992;52.052;8.550;2023-05-10T13:32:30;18.10;99.90
74513;DHT22;62992;52.052;8.550;2023-05-10T13:35:14;18.00;99.90
74513;DHT22;62992;52.052;8.550;2023-05-10T13:37:58;17.70;99.90
74513;DHT22;62992;52.052;8.550;2023-05-10T13:40:42;17.30;99.90
74513;DHT22;62992;52.052;8.550;2023-05-10T13:43:26;16.90;99.90
74513;DHT22;62992;52.052;8.550;2023-05-10T13:46:11;16.50;99.90
74513;DHT22;62992;52.052;8.550;2023-05-10T13:48:55;16.40;99.90
74513;DHT22;62992;52.052;8.550;2023-05-10T13:51:40;16.30;99.90
74513;DHT22;62992;52.052;8.550;2023-05-10T13:54:24;16.10;99.90
74513;DHT22;62992;52.052;8.550;2023-05-10T13:57:08;16.00;99.90
74513;DHT22;62992;52.052;8.550;2023-05-10T13:59:53;15.90;99.90
74513;DHT22;62992;52.052;8.550;2023-05-10T14:02:37;15.90;99.90
74513;DHT22;62992;52.052;8.550;2023-05-10T14:05:21;15.80;99.90
74513;DHT22;62992;52.052;8.550;2023-05-10T14:08:07;15.90;99.90
74513;DHT22;62992;52.052;8.550;2023-05-10T14:10:53;15.70;99.90
74513;DHT22;62992;52.052;8.550;2023-05-10T14:13:37;15.60;99.90
74513;DHT22;62992;52.052;8.550;2023-05-10T14:16:22;15.60;99.90
74513;DHT22;62992;52.052;8.550;2023-05-10T14:19:06;15.60;99.90
74513;DHT22;62992;52.052;8.550;2023-05-10T14:21:50;15.50;99.90
74513;DHT22;62992;52.052;8.550;2023-05-10T14:24:36;15.50;99.90
74513;DHT22;62992;52.052;8.550;2023-05-10T14:27:20;15.40;99.90
74513;DHT22;62992;52.052;8.550;2023-05-10T14:30:04;15.40;99.90
74513;DHT22;62992;52.052;8.550;2023-05-10T14:32:48;15.40;99.90
74513;DHT22;62992;52.052;8.550;2023-05-10T14:35:32;15.40;99.90
74513;DHT22;62992;52.052;8.550;2023-05-10T14:38:17;15.40;99.90
74513;DHT22;62992;52.052;8.550;2023-05-10T14:41:01;15.50;99.90
74513;DHT22;62992;52.052;8.550;2023-05-10T14:43:45;15.50;99.90
74513;DHT22;62992;52.052;8.550;2023-05-10T14:46:29;15.60;99.90
74513;DHT22;62992;52.052;8.550;2023-05-10T14:49:13;15.60;99.90
74513;DHT22;62992;52.052;8.550;2023-05-10T14:51:58;15.70;99.90
74513;DHT22;62992;52.052;8.550;2023-05-10T14:54:42;15.90;99.90
74513;DHT22;62992;52.052;8.550;2023-05-10T14:57:26;16.00;99.90
74513;DHT22;62992;52.052;8.550;2023-05-10T15:00:13;16.10;99.90
74513;DHT22;62992;52.052;8.550;2023-05-10T15:02:59;16.10;99.90
74513;DHT22;62992;52.052;8.550;2023-05-10T15:05:43;16.30;99.90
74513;DHT22;62992;52.052;8.550;2023-05-10T15:08:28;16.40;99.90
74513;DHT22;62992;52.052;8.550;2023-05-10T15:11:12;16.40;99.90
74513;DHT22;62992;52.052;8.550;2023-05-10T15:13:56;16.40;99.90
74513;DHT22;62992;52.052;8.550;2023-05-10T15:16:40;16.40;99.90
74513;DHT22;62992;52.052;8.550;2023-05-10T15:19:24;16.60;99.90
74513;DHT22;62992;52.052;8.550;2023-05-10T15:22:09;16.50;99.90
74513;DHT22;62992;52.052;8.550;2023-05-10T15:24:53;16.60;99.90
74513;DHT22;62992;52.052;8.550;2023-05-10T15:27:37;16.60;99.90
74513;DHT22;62992;52.052;8.550;2023-05-10T15:30:21;16.50;99.90
74513;DHT22;62992;52.052;8.550;2023-05-10T15:33:05;16.50;99.90
74513;DHT22;62992;52.052;8.550;2023-05-10T15:35:51;16.50;99.90
74513;DHT22;62992;52.052;8.550;2023-05-10T15:38:35;16.60;99.90
74513;DHT22;62992;52.052;8.550;2023-05-10T15:41:20;16.50;99.90
74513;DHT22;62992;52.052;8.550;2023-05-10T15:44:04;16.40;99.90
74513;DHT22;62992;52.052;8.550;2023-05-10T15:46:49;16.20;99.90
74513;DHT22;62992;52.052;8.550;2023-05-10T15:49:33;16.20;99.90
74513;DHT22;62992;52.052;8.550;2023-05-10T15:52:17;16.10;99.90
74513;DHT22;62992;52.052;8.550;2023-05-10T15:55:02;16.10;99.90
74513;DHT22;62992;52.052;8.550;2023-05-10T15:57:46;16.00;99.90
74513;DHT22;62992;52.052;8.550;2023-05-10T16:00:31;16.00;99.90
74513;DHT22;62992;52.052;8.550;2023-05-10T16:03:15;15.90;99.90
74513;DHT22;62992;52.052;8.550;2023-05-10T16:05:59;15.80;99.90
74513;DHT22;62992;52.052;8.550;2023-05-10T16:08:44;15.80;99.90
74513;DHT22;62992;52.052;8.550;2023-05-10T16:11:28;15.80;99.90
74513;DHT22;62992;52.052;8.550;2023-05-10T16:14:12;15.70;99.90
74513;DHT22;62992;52.052;8.550;2023-05-10T16:16:56;15.60;99.90
74513;DHT22;62992;52.052;8.550;2023-05-10T16:19:40;15.50;99.90
74513;DHT22;62992;52.052;8.550;2023-05-10T16:22:25;15.50;99.90
74513;DHT22;62992;52.052;8.550;2023-05-10T16:25:11;15.40;99.90
74513;DHT22;62992;52.052;8.550;2023-05-10T16:27:56;15.30;99.90
74513;DHT22;62992;52.052;8.550;2023-05-10T16:30:40;15.20;99.90
74513;DHT22;62992;52.052;8.550;2023-05-10T16:33:24;15.20;99.90
74513;DHT22;62992;52.052;8.550;2023-05-10T16:36:08;15.10;99.90
74513;DHT22;62992;52.052;8.550;2023-05-10T16:38:52;14.90;99.90
74513;DHT22;62992;52.052;8.550;2023-05-10T16:41:37;14.80;99.90
74513;DHT22;62992;52.052;8.550;2023-05-10T16:44:21;14.70;99.90
74513;DHT22;62992;52.052;8.550;2023-05-10T16:47:05;14.60;99.90
74513;DHT22;62992;52.052;8.550;2023-05-10T16:49:49;14.60;99.90
74513;DHT22;62992;52.052;8.550;2023-05-10T16:52:34;14.50;99.90
74513;DHT22;62992;52.052;8.550;2023-05-10T16:55:19;14.60;99.90
74513;DHT22;62992;52.052;8.550;2023-05-10T16:58:03;14.50;99.90
74513;DHT22;62992;52.052;8.550;2023-05-10T17:00:47;14.40;99.90
74513;DHT22;62992;52.052;8.550;2023-05-10T17:03:31;14.40;99.90
74513;DHT22;62992;52.052;8.550;2023-05-10T17:06:16;14.40;99.90
74513;DHT22;62992;52.052;8.550;2023-05-10T17:09:00;14.30;99.90
74513;DHT22;62992;52.052;8.550;2023-05-10T17:11:44;14.50;99.90
74513;DHT22;62992;52.052;8.550;2023-05-10T17:14:29;14.40;99.90
74513;DHT22;62992;52.052;8.550;2023-05-10T17:17:13;14.40;99.90
74513;DHT22;62992;52.052;8.550;2023-05-10T17:19:57;14.40;99.90
74513;DHT22;62992;52.052;8.550;2023-05-10T17:22:42;14.30;99.90
74513;DHT22;62992;52.052;8.550;2023-05-10T17:25:26;14.30;99.90
74513;DHT22;62992;52.052;8.550;2023-05-10T17:28:10;14.20;99.90
74513;DHT22;62992;52.052;8.550;2023-05-10T17:30:55;14.20;99.90
74513;DHT22;62992;52.052;8.550;2023-05-10T17:33:39;14.20;99.90
74513;DHT22;62992;52.052;8.550;2023-05-10T17:36:24;14.20;99.90
74513;DHT22;62992;52.052;8.550;2023-05-10T17:39:08;14.30;99.90
74513;DHT22;62992;52.052;8.550;2023-05-10T17:41:52;14.20;99.90
74513;DHT22;62992;52.052;8.550;2023-05-10T17:44:36;14.30;99.90
74513;DHT22;62992;52.052;8.550;2023-05-10T17:47:20;14.30;99.90
74513;DHT22;62992;52.052;8.550;2023-05-10T17:50:05;14.30;99.90
74513;DHT22;62992;52.052;8.550;2023-05-10T17:52:49;14.40;99.90